Time;durP1;ratioP1;P1;durP2;ratioP2;P2;SDS_P1;SDS_P2;PMS_P1;PMS_P2;Temp;Humidity;BMP_temperature;BMP_pressure;BME280_temperature;BME280_humidity;BME280_pressure;Samples;Min_cycle;Max_cycle;Signal;HPM_P1;HPM_P2
2020/12/20 00:00:16;;;;;;;;;;;;;;;2.81;95.50;93300.81;1065759;55;21048;-84
2020/12/20 00:01:16;;;;;;;;;;;;;;;2.75;95.82;93297.72;1065924;55;20141;-82
2020/12/20 00:02:17;;;;;;;;;;;;;;;2.74;95.53;93298.84;1067917;55;20172;-84
2020/12/20 00:03:17;;;;;;;;;;;;;;;2.86;95.21;93297.09;1067793;55;20181;-83
2020/12/20 00:04:18;;;;;;;;;;;;;;;2.91;94.33;93299.41;1067878;55;20613;-84
2020/12/20 00:05:19;;;;;;;;;;;;;;;2.85;94.18;93295.56;1067742;55;20590;-85
2020/12/20 00:06:19;;;;;;;;;;;;;;;2.82;93.87;93296.28;1065743;55;20169;-83
2020/12/20 00:07:20;;;;;;;;;;;;;;;2.80;94.45;93295.88;1063651;55;20149;-82
2020/12/20 00:08:23;;;;;;;;;;;;;;;2.77;94.33;93303.41;1063703;55;20297;-83
2020/12/20 00:09:23;;;;;;;;;;;;;;;2.71;95.08;93298.81;1065743;55;20165;-81
2020/12/20 00:10:24;;;;;;;;;;;;;;;2.76;94.71;93293.97;1063582;55;20173;-82
2020/12/20 00:11:24;;;;;;;;;;;;;;;2.78;94.09;93294.37;1065567;55;20165;-83
2020/12/20 00:12:25;;;;;;;;;;;;;;;2.80;95.18;93298.53;1070170;55;20165;-83
2020/12/20 00:13:26;;;;;;;;;;;;;;;2.80;94.17;93301.91;1065677;55;20184;-83
2020/12/20 00:14:27;;;;;;;;;;;;;;;2.76;94.75;93306.41;1065628;55;20173;-84
2020/12/20 00:15:27;;;;;;;;;;;;;;;2.73;94.73;93301.84;1067928;55;20200;-83
2020/12/20 00:16:31;;;;;;;;;;;;;;;2.73;95.06;93309.78;1070418;55;20160;-82
2020/12/20 00:17:35;;;;;;;;;;;;;;;2.74;95.30;93306.00;1067784;55;20189;-81
2020/12/20 00:18:35;;;;;;;;;;;;;;;2.71;95.24;93296.16;1065682;55;20146;-82
2020/12/20 00:19:36;;;;;;;;;;;;;;;2.79;95.62;93305.69;1065594;55;20173;-81
2020/12/20 00:20:37;;;;;;;;;;;;;;;2.74;95.02;93308.66;1065655;55;20201;-82
2020/12/20 00:21:39;;;;;;;;;;;;;;;2.78;94.81;93304.16;1065666;55;20193;-83
2020/12/20 00:22:39;;;;;;;;;;;;;;;2.77;94.40;93302.66;1063476;55;20181;-83
2020/12/20 00:23:40;;;;;;;;;;;;;;;2.77;94.80;93302.66;1061485;56;20177;-83
2020/12/20 00:24:41;;;;;;;;;;;;;;;2.74;95.04;93300.72;1065813;55;20177;-83
2020/12/20 00:25:42;;;;;;;;;;;;;;;2.76;95.11;93298.47;1065687;55;20166;-82
2020/12/20 00:26:43;;;;;;;;;;;;;;;2.71;95.10;93307.47;1065838;55;20258;-84
2020/12/20 00:27:44;;;;;;;;;;;;;;;2.73;95.17;93305.25;1065737;55;20228;-83
2020/12/20 00:28:44;;;;;;;;;;;;;;;2.70;95.23;93305.97;1063438;55;20173;-82
2020/12/20 00:29:45;;;;;;;;;;;;;;;2.72;95.26;93309.03;1065746;55;20598;-83
2020/12/20 00:30:46;;;;;;;;;;;;;;;2.78;94.71;93310.22;1067929;55;20661;-83
2020/12/20 00:31:47;;;;;;;;;;;;;;;2.77;94.68;93307.94;1067772;55;20149;-83
2020/12/20 00:32:51;;;;;;;;;;;;;;;2.72;94.35;93306.38;1065765;55;20166;-83
2020/12/20 00:33:52;;;;;;;;;;;;;;;2.75;95.06;93302.25;1065950;55;20161;-83
2020/12/20 00:34:53;;;;;;;;;;;;;;;2.71;95.23;93306.72;1065624;55;20748;-83
2020/12/20 00:35:53;;;;;;;;;;;;;;;2.75;95.29;93304.88;1067898;55;20150;-83
2020/12/20 00:36:54;;;;;;;;;;;;;;;2.74;95.09;93306.00;1067831;55;20168;-83
2020/12/20 00:37:55;;;;;;;;;;;;;;;2.74;94.92;93301.50;1068028;55;20261;-82
2020/12/20 00:38:57;;;;;;;;;;;;;;;2.76;95.09;93312.44;1065542;55;20176;-83
2020/12/20 00:39:58;;;;;;;;;;;;;;;2.73;95.43;93304.50;1063551;55;20157;-83
2020/12/20 00:40:58;;;;;;;;;;;;;;;2.74;95.31;93306.00;1065603;55;20274;-84
2020/12/20 00:41:59;;;;;;;;;;;;;;;2.86;94.16;93303.13;1067925;55;20160;-84
2020/12/20 00:43:00;;;;;;;;;;;;;;;2.80;94.10;93301.16;1067939;55;20223;-84
2020/12/20 00:44:00;;;;;;;;;;;;;;;2.84;93.86;93302.72;1065747;55;20656;-87
2020/12/20 00:45:01;;;;;;;;;;;;;;;2.79;94.62;93295.13;1063431;55;20165;-82
2020/12/20 00:46:03;;;;;;;;;;;;;;;2.77;94.77;93295.50;1061467;55;20166;-85
2020/12/20 00:47:04;;;;;;;;;;;;;;;2.75;95.14;93296.97;1063549;55;20189;-82
2020/12/20 00:48:04;;;;;;;;;;;;;;;2.86;94.43;93294.44;1067820;55;20161;-82
2020/12/20 00:49:05;;;;;;;;;;;;;;;2.94;93.61;93291.53;1067736;55;20287;-83
2020/12/20 00:50:06;;;;;;;;;;;;;;;2.89;94.12;93297.09;1067695;55;20235;-84
2020/12/20 00:51:06;;;;;;;;;;;;;;;2.98;93.08;93296.81;1067709;55;20972;-83
2020/12/20 00:52:09;;;;;;;;;;;;;;;2.99;93.29;93301.75;1065607;55;20185;-81
2020/12/20 00:53:09;;;;;;;;;;;;;;;2.93;93.38;93297.16;1063587;55;20170;-84
2020/12/20 00:54:11;;;;;;;;;;;;;;;2.87;94.54;93296.72;1065877;55;20157;-82
2020/12/20 00:55:14;;;;;;;;;;;;;;;2.87;93.80;93293.31;1063528;55;20165;-85
2020/12/20 00:56:14;;;;;;;;;;;;;;;2.87;93.50;93298.59;1065748;55;20157;-81
2020/12/20 00:57:15;;;;;;;;;;;;;;;2.82;93.98;93297.06;1067699;55;20193;-84
2020/12/20 00:58:16;;;;;;;;;;;;;;;2.81;94.13;93295.53;1063351;55;20185;-82
2020/12/20 00:59:17;;;;;;;;;;;;;;;2.78;94.35;93294.37;1065692;55;20262;-82
2020/12/20 01:00:17;;;;;;;;;;;;;;;2.75;94.84;93294.31;1067606;55;20668;-81
2020/12/20 01:01:18;;;;;;;;;;;;;;;2.73;94.85;93297.34;1065617;55;20186;-83
2020/12/20 01:02:19;;;;;;;;;;;;;;;2.75;94.68;93291.69;1065438;55;20146;-83
2020/12/20 01:03:19;;;;;;;;;;;;;;;2.74;94.66;93292.81;1065390;55;20657;-85
2020/12/20 01:04:20;;;;;;;;;;;;;;;2.72;94.93;93284.47;1063356;55;20209;-83
2020/12/20 01:05:20;;;;;;;;;;;;;;;2.73;95.18;93286.78;1063545;55;20703;-84
2020/12/20 01:06:24;;;;;;;;;;;;;;;2.72;95.17;93295.81;1065761;55;20187;-84
2020/12/20 01:07:25;;;;;;;;;;;;;;;2.69;95.33;93295.78;1065717;55;20188;-81
2020/12/20 01:08:27;;;;;;;;;;;;;;;2.70;95.29;93287.50;1063412;55;20297;-83
2020/12/20 01:09:27;;;;;;;;;;;;;;;2.82;94.45;93285.75;1063460;55;20173;-83
2020/12/20 01:10:27;;;;;;;;;;;;;;;2.81;94.69;93292.91;1067602;55;20169;-83
2020/12/20 01:11:28;;;;;;;;;;;;;;;2.77;95.32;93287.56;1065369;55;20237;-81
2020/12/20 01:12:30;;;;;;;;;;;;;;;2.73;95.50;93292.06;1065541;55;20157;-83
2020/12/20 01:13:32;;;;;;;;;;;;;;;2.71;95.75;93294.28;1067745;55;20649;-85
2020/12/20 01:14:33;;;;;;;;;;;;;;;2.74;95.28;93288.28;1065617;55;20193;-83
2020/12/20 01:15:33;;;;;;;;;;;;;;;2.81;95.45;93286.84;1067757;55;20201;-83
2020/12/20 01:16:37;;;;;;;;;;;;;;;2.90;94.77;93290.72;1065655;55;20196;-86
2020/12/20 01:17:38;;;;;;;;;;;;;;;2.81;94.87;93287.63;1065598;55;20162;-81
2020/12/20 01:18:38;;;;;;;;;;;;;;;2.78;94.75;93291.72;1067681;55;20153;-83
2020/12/20 01:19:39;;;;;;;;;;;;;;;2.76;94.87;93290.56;1067640;55;20258;-84
2020/12/20 01:20:40;;;;;;;;;;;;;;;2.76;95.34;93285.28;1065598;55;20169;-84
2020/12/20 01:21:40;;;;;;;;;;;;;;;2.74;96.23;93283.00;1065625;55;20664;-83
2020/12/20 01:22:42;;;;;;;;;;;;;;;2.74;95.84;93287.53;1067683;55;20181;-82
2020/12/20 01:23:43;;;;;;;;;;;;;;;2.69;95.87;93287.88;1063392;55;20186;-83
2020/12/20 01:24:43;;;;;;;;;;;;;;;2.66;96.09;93286.69;1061263;56;20161;-83
2020/12/20 01:25:44;;;;;;;;;;;;;;;2.68;96.35;93289.75;1065621;55;20184;-85
2020/12/20 01:26:46;;;;;;;;;;;;;;;2.74;96.09;93292.81;1065522;55;20161;-84
2020/12/20 01:27:48;;;;;;;;;;;;;;;2.73;95.98;93291.31;1065599;55;20177;-84
2020/12/20 01:28:48;;;;;;;;;;;;;;;2.69;95.95;93283.34;1067722;55;20161;-83
2020/12/20 01:29:49;;;;;;;;;;;;;;;2.65;96.49;93285.19;1067684;55;20761;-83
2020/12/20 01:30:52;;;;;;;;;;;;;;;2.64;96.82;93291.59;1065514;55;20263;-85
2020/12/20 01:31:52;;;;;;;;;;;;;;;2.66;96.77;93288.56;1063476;55;20162;-84
2020/12/20 01:32:53;;;;;;;;;;;;;;;2.69;96.91;93287.88;1063503;55;20166;-83
2020/12/20 01:33:53;;;;;;;;;;;;;;;2.70;96.11;93292.00;1065535;55;20154;-84
2020/12/20 01:34:54;;;;;;;;;;;;;;;2.70;96.07;93286.75;1067808;55;20638;-84
2020/12/20 01:35:54;;;;;;;;;;;;;;;2.72;95.96;93282.62;1070209;55;20185;-82
2020/12/20 01:36:55;;;;;;;;;;;;;;;2.74;96.00;93288.28;1065501;55;20614;-83
2020/12/20 01:37:56;;;;;;;;;;;;;;;2.69;96.44;93291.25;1065569;55;20188;-83
2020/12/20 01:38:56;;;;;;;;;;;;;;;2.73;95.73;93283.38;1067620;55;20158;-82
2020/12/20 01:39:58;;;;;;;;;;;;;;;2.72;95.72;93281.84;1067646;55;20149;-83
2020/12/20 01:40:59;;;;;;;;;;;;;;;2.67;96.20;93290.09;1065384;55;20173;-82
2020/12/20 01:41:59;;;;;;;;;;;;;;;2.71;95.84;93281.09;1065608;55;20173;-83
2020/12/20 01:43:00;;;;;;;;;;;;;;;2.78;95.34;93285.69;1065478;55;20176;-84
2020/12/20 01:44:01;;;;;;;;;;;;;;;2.83;95.05;93274.81;1067700;55;20153;-83
2020/12/20 01:45:01;;;;;;;;;;;;;;;2.78;95.10;93273.25;1063470;55;20579;-83
2020/12/20 01:46:02;;;;;;;;;;;;;;;2.72;95.62;93280.00;1065647;55;20256;-82
2020/12/20 01:47:03;;;;;;;;;;;;;;;2.73;95.99;93281.50;1063265;55;20153;-82
2020/12/20 01:48:03;;;;;;;;;;;;;;;2.70;96.42;93276.94;1065703;55;20162;-83
2020/12/20 01:49:04;;;;;;;;;;;;;;;2.74;96.10;93279.63;1069795;55;20179;-82
2020/12/20 01:50:07;;;;;;;;;;;;;;;2.76;95.73;93278.13;1067652;55;20228;-82
2020/12/20 01:51:12;;;;;;;;;;;;;;;2.75;95.48;93271.34;1063635;55;20216;-83
2020/12/20 01:52:16;;;;;;;;;;;;;;;2.73;95.84;93272.81;1063728;55;20161;-84
2020/12/20 01:53:18;;;;;;;;;;;;;;;2.72;95.40;93266.00;1063460;55;20188;-82
2020/12/20 01:54:19;;;;;;;;;;;;;;;2.73;95.62;93264.91;1065537;55;20187;-84
2020/12/20 01:55:21;;;;;;;;;;;;;;;2.72;95.56;93272.06;1065532;55;20200;-83
2020/12/20 01:56:22;;;;;;;;;;;;;;;2.69;96.07;93266.75;1065597;55;20180;-84
2020/12/20 01:57:24;;;;;;;;;;;;;;;2.70;96.20;93276.19;1065534;55;20167;-82
2020/12/20 01:58:25;;;;;;;;;;;;;;;2.69;96.76;93272.78;1067729;55;20246;-82
2020/12/20 01:59:27;;;;;;;;;;;;;;;2.66;96.17;93270.84;1065502;55;20290;-82
2020/12/20 02:00:28;;;;;;;;;;;;;;;2.66;96.94;93270.09;1065559;55;20222;-83
2020/12/20 02:01:31;;;;;;;;;;;;;;;2.81;96.71;93266.50;1067684;55;20161;-82
2020/12/20 02:02:33;;;;;;;;;;;;;;;2.77;96.04;93266.47;1067736;55;20188;-83
2020/12/20 02:03:34;;;;;;;;;;;;;;;2.76;96.32;93266.81;1065264;55;20205;-84
2020/12/20 02:04:34;;;;;;;;;;;;;;;2.80;95.83;93269.50;1065429;55;21009;-84
2020/12/20 02:05:35;;;;;;;;;;;;;;;2.74;95.85;93275.09;1067677;55;20191;-83
2020/12/20 02:06:39;;;;;;;;;;;;;;;2.83;95.54;93266.88;1065565;55;20180;-83
2020/12/20 02:07:42;;;;;;;;;;;;;;;2.82;95.05;93269.91;1065535;55;20193;-83
2020/12/20 02:08:43;;;;;;;;;;;;;;;2.72;95.81;93269.44;1067724;55;20176;-83
2020/12/20 02:09:44;;;;;;;;;;;;;;;2.65;96.45;93269.34;1067727;55;20184;-83
2020/12/20 02:11:02;;;;;;;;;;;;;;;2.66;96.66;93267.47;1065425;55;21179;-82
2020/12/20 02:12:04;;;;;;;;;;;;;;;2.64;96.19;93257.28;1064974;55;20307;-82
2020/12/20 02:13:04;;;;;;;;;;;;;;;2.63;96.76;93257.63;1067668;55;20217;-82
2020/12/20 02:14:05;;;;;;;;;;;;;;;2.61;96.93;93263.28;1065420;55;20735;-82
2020/12/20 02:15:08;;;;;;;;;;;;;;;2.59;97.14;93254.19;1063413;55;20180;-83
2020/12/20 02:16:09;;;;;;;;;;;;;;;2.62;96.59;93251.59;1063391;55;20665;-83
2020/12/20 02:17:10;;;;;;;;;;;;;;;2.70;96.14;93260.34;1065616;55;20237;-84
2020/12/20 02:18:10;;;;;;;;;;;;;;;2.70;96.23;93255.06;1065521;55;20176;-84
2020/12/20 02:19:11;;;;;;;;;;;;;;;2.73;95.71;93257.75;1065551;55;20177;-82
2020/12/20 02:20:11;;;;;;;;;;;;;;;2.75;95.49;93260.78;1067721;55;20228;-83
2020/12/20 02:21:16;;;;;;;;;;;;;;;2.74;95.44;93264.53;1067480;55;20149;-83
2020/12/20 02:22:17;;;;;;;;;;;;;;;2.73;95.52;93252.47;1067809;55;20220;-85
2020/12/20 02:23:18;;;;;;;;;;;;;;;2.72;95.78;93255.44;1069814;55;20164;-84
2020/12/20 02:24:19;;;;;;;;;;;;;;;2.68;96.15;93259.97;1067486;55;20165;-83
2020/12/20 02:25:19;;;;;;;;;;;;;;;2.67;96.74;93253.91;1065441;55;20162;-82
2020/12/20 02:26:21;;;;;;;;;;;;;;;2.66;96.76;93254.28;1067622;55;20617;-83
2020/12/20 02:27:24;;;;;;;;;;;;;;;2.65;97.48;93258.03;1067563;55;20269;-83
2020/12/20 02:28:25;;;;;;;;;;;;;;;2.62;97.51;93251.59;1067647;55;20277;-84
2020/12/20 02:29:25;;;;;;;;;;;;;;;2.59;97.50;93262.87;1067712;55;20176;-83
2020/12/20 02:30:26;;;;;;;;;;;;;;;2.59;98.10;93257.63;1067806;55;20180;-82
2020/12/20 02:31:28;;;;;;;;;;;;;;;2.60;98.13;93261.00;1069845;55;20167;-84
2020/12/20 02:32:28;;;;;;;;;;;;;;;2.59;98.34;93264.75;1065356;55;20642;-85
2020/12/20 02:33:30;;;;;;;;;;;;;;;2.59;98.96;93262.09;1067583;55;20201;-87
2020/12/20 02:34:30;;;;;;;;;;;;;;;2.57;98.68;93259.84;1069829;55;20165;-87
2020/12/20 02:35:31;;;;;;;;;;;;;;;2.59;99.04;93257.63;1065464;55;20602;-84
2020/12/20 02:36:31;;;;;;;;;;;;;;;2.58;98.76;93255.31;1067606;55;20166;-84
2020/12/20 02:37:32;;;;;;;;;;;;;;;2.56;98.88;93255.69;1072218;55;20175;-83
2020/12/20 02:38:32;;;;;;;;;;;;;;;2.57;98.90;93259.09;1067557;55;20710;-82
2020/12/20 02:39:33;;;;;;;;;;;;;;;2.52;99.31;93258.28;1067660;55;20250;-83
2020/12/20 02:40:34;;;;;;;;;;;;;;;2.55;99.02;93258.66;1067633;55;20253;-83
2020/12/20 02:41:35;;;;;;;;;;;;;;;2.64;98.56;93259.16;1067542;55;20300;-83
2020/12/20 02:42:37;;;;;;;;;;;;;;;2.60;97.98;93256.47;1069790;55;20216;-83
2020/12/20 02:43:37;;;;;;;;;;;;;;;2.60;98.15;93263.66;1067404;55;20641;-84
2020/12/20 02:44:38;;;;;;;;;;;;;;;2.58;98.21;93266.62;1065464;55;20169;-83
2020/12/20 02:45:38;;;;;;;;;;;;;;;2.62;98.23;93266.66;1067519;55;20154;-83
2020/12/20 02:46:42;;;;;;;;;;;;;;;2.63;97.90;93261.03;1067541;55;20231;-83
2020/12/20 02:47:42;;;;;;;;;;;;;;;2.77;97.08;93265.72;1065581;55;20188;-82
2020/12/20 02:48:43;;;;;;;;;;;;;;;2.71;96.53;93273.16;1067706;55;20165;-83
2020/12/20 02:49:44;;;;;;;;;;;;;;;2.71;97.04;93269.78;1067547;55;20160;-83
2020/12/20 02:50:44;;;;;;;;;;;;;;;2.68;97.01;93263.34;1067568;55;22185;-83
2020/12/20 02:51:45;;;;;;;;;;;;;;;2.62;97.21;93274.59;1067902;55;20165;-83
2020/12/20 02:52:45;;;;;;;;;;;;;;;2.59;97.37;93270.03;1065457;55;20176;-83
2020/12/20 02:53:46;;;;;;;;;;;;;;;2.69;97.13;93266.75;1063156;56;20161;-84
2020/12/20 02:54:46;;;;;;;;;;;;;;;2.64;97.43;93265.19;1063819;55;20263;-83
2020/12/20 02:55:47;;;;;;;;;;;;;;;2.60;97.57;93263.66;1067390;55;20153;-83
2020/12/20 02:56:47;;;;;;;;;;;;;;;2.62;97.59;93264.03;1067524;55;20223;-84
2020/12/20 02:57:48;;;;;;;;;;;;;;;2.62;97.00;93261.38;1067508;55;20191;-84
2020/12/20 02:58:49;;;;;;;;;;;;;;;2.62;96.94;93264.78;1069632;55;20156;-83
2020/12/20 02:59:50;;;;;;;;;;;;;;;2.64;96.90;93259.16;1067593;55;20188;-83
2020/12/20 03:00:50;;;;;;;;;;;;;;;2.60;96.94;93269.69;1067460;55;20593;-83
2020/12/20 03:01:51;;;;;;;;;;;;;;;2.58;97.03;93263.22;1065475;55;20165;-83
2020/12/20 03:02:51;;;;;;;;;;;;;;;2.58;97.86;93265.88;1067508;55;20154;-82
2020/12/20 03:03:52;;;;;;;;;;;;;;;2.55;97.59;93266.59;1065406;55;20283;-84
2020/12/20 03:04:52;;;;;;;;;;;;;;;2.57;97.58;93267.75;1067519;55;20192;-84
2020/12/20 03:05:53;;;;;;;;;;;;;;;2.52;97.72;93260.91;1067387;55;20614;-84
2020/12/20 03:06:53;;;;;;;;;;;;;;;2.53;97.83;93266.94;1065390;55;20634;-82
2020/12/20 03:07:54;;;;;;;;;;;;;;;2.51;98.66;93262.03;1067461;55;20149;-83
2020/12/20 03:08:54;;;;;;;;;;;;;;;2.50;98.70;93267.66;1069734;55;20156;-82
2020/12/20 03:09:55;;;;;;;;;;;;;;;2.53;98.42;93265.06;1067416;55;20268;-82
2020/12/20 03:10:55;;;;;;;;;;;;;;;2.64;97.54;93264.44;1065348;55;20246;-82
2020/12/20 03:11:56;;;;;;;;;;;;;;;2.69;96.96;93266.75;1062846;56;20181;-83
2020/12/20 03:12:56;;;;;;;;;;;;;;;2.67;96.71;93266.34;1063205;56;20154;-83
2020/12/20 03:13:57;;;;;;;;;;;;;;;2.61;97.17;93259.88;1063134;55;20541;-84
2020/12/20 03:14:57;;;;;;;;;;;;;;;2.59;96.64;93251.56;1065173;55;20649;-82
2020/12/20 03:16:00;;;;;;;;;;;;;;;2.56;98.01;93268.13;1067572;55;20173;-84
2020/12/20 03:17:01;;;;;;;;;;;;;;;2.64;97.39;93264.44;1065383;55;20197;-83
2020/12/20 03:18:01;;;;;;;;;;;;;;;2.68;97.12;93263.34;1067583;55;20300;-82
2020/12/20 03:19:02;;;;;;;;;;;;;;;2.65;97.25;93261.44;1067502;55;20153;-83
2020/12/20 03:20:03;;;;;;;;;;;;;;;2.58;97.34;93260.59;1067413;55;20185;-84
2020/12/20 03:21:04;;;;;;;;;;;;;;;2.62;97.69;93253.47;1069752;55;20183;-83
2020/12/20 03:22:04;;;;;;;;;;;;;;;2.65;97.34;93264.06;1065366;55;20154;-84
2020/12/20 03:23:05;;;;;;;;;;;;;;;2.73;97.13;93257.75;1065292;55;20217;-83
2020/12/20 03:24:06;;;;;;;;;;;;;;;2.76;96.23;93251.72;1065451;55;20242;-82
2020/12/20 03:25:09;;;;;;;;;;;;;;;2.78;96.15;93244.22;1065561;55;20177;-83
2020/12/20 03:26:12;;;;;;;;;;;;;;;2.71;96.29;93243.38;1065869;55;20722;-83
2020/12/20 03:27:12;;;;;;;;;;;;;;;2.68;96.34;93254.69;1065689;55;20196;-84
2020/12/20 03:28:13;;;;;;;;;;;;;;;2.64;96.93;93246.72;1067878;55;20165;-82
2020/12/20 03:29:13;;;;;;;;;;;;;;;2.75;96.51;93257.38;1065655;55;20176;-82
2020/12/20 03:30:14;;;;;;;;;;;;;;;2.68;97.01;93249.41;1061389;56;20158;-82
2020/12/20 03:31:14;;;;;;;;;;;;;;;2.69;96.78;93259.59;1063582;55;20166;-84
2020/12/20 03:32:18;;;;;;;;;;;;;;;2.63;97.23;93250.47;1065613;55;20165;-83
2020/12/20 03:33:18;;;;;;;;;;;;;;;2.71;97.22;93256.59;1067815;55;20613;-83
2020/12/20 03:34:19;;;;;;;;;;;;;;;2.67;96.82;93259.19;1069876;55;20284;-84
2020/12/20 03:35:19;;;;;;;;;;;;;;;2.62;97.15;93248.19;1065742;55;20204;-83
2020/12/20 03:36:21;;;;;;;;;;;;;;;2.69;97.13;93256.94;1065739;55;20176;-82
2020/12/20 03:37:21;;;;;;;;;;;;;;;2.68;97.51;93252.03;1063512;55;20158;-82
2020/12/20 03:38:22;;;;;;;;;;;;;;;2.65;97.48;93256.16;1063522;55;20150;-85
2020/12/20 03:39:23;;;;;;;;;;;;;;;2.63;97.35;93258.38;1063539;55;20645;-82
2020/12/20 03:40:24;;;;;;;;;;;;;;;2.60;97.73;93251.22;1063507;55;20178;-85
2020/12/20 03:41:25;;;;;;;;;;;;;;;2.55;97.78;93261.31;1065676;55;20669;-82
2020/12/20 03:42:25;;;;;;;;;;;;;;;2.63;97.55;93255.75;1067764;55;20196;-83
2020/12/20 03:43:26;;;;;;;;;;;;;;;2.59;98.57;93254.19;1067774;55;20649;-82
2020/12/20 03:44:26;;;;;;;;;;;;;;;2.52;98.15;93253.00;1067876;55;20161;-82
2020/12/20 03:45:27;;;;;;;;;;;;;;;2.53;98.50;93257.16;1065518;55;20154;-84
2020/12/20 03:46:27;;;;;;;;;;;;;;;2.62;98.04;93256.88;1065583;55;20253;-82
2020/12/20 03:47:28;;;;;;;;;;;;;;;2.67;97.18;93255.78;1065527;55;20158;-82
2020/12/20 03:48:28;;;;;;;;;;;;;;;2.62;97.29;93254.22;1065534;55;20222;-84
2020/12/20 03:49:29;;;;;;;;;;;;;;;2.65;97.11;93250.88;1067835;55;20192;-82
2020/12/20 03:50:32;;;;;;;;;;;;;;;2.66;97.00;93256.91;1065693;55;20161;-82
2020/12/20 03:51:32;;;;;;;;;;;;;;;2.62;96.73;93250.84;1065791;55;20166;-83
2020/12/20 03:52:33;;;;;;;;;;;;;;;2.59;97.04;93243.62;1069902;55;20168;-84
2020/12/20 03:53:33;;;;;;;;;;;;;;;2.56;97.68;93247.78;1069959;55;20161;-82
2020/12/20 03:54:34;;;;;;;;;;;;;;;2.61;96.94;93249.31;1065732;55;20161;-84
2020/12/20 03:55:34;;;;;;;;;;;;;;;2.66;96.80;93241.84;1063505;55;20158;-80
2020/12/20 03:56:35;;;;;;;;;;;;;;;2.65;96.72;93239.56;1065584;55;20158;-83
2020/12/20 03:57:35;;;;;;;;;;;;;;;2.69;96.31;93243.75;1065645;55;20176;-82
2020/12/20 03:58:35;;;;;;;;;;;;;;;2.70;96.26;93239.22;1065617;55;20254;-83
2020/12/20 03:59:39;;;;;;;;;;;;;;;2.61;96.64;93239.53;1065576;55;20188;-83
2020/12/20 04:00:39;;;;;;;;;;;;;;;2.65;96.66;93240.31;1065599;55;20206;-82
2020/12/20 04:01:40;;;;;;;;;;;;;;;2.62;96.73;93250.84;1065712;55;20306;-84
2020/12/20 04:02:41;;;;;;;;;;;;;;;2.66;96.69;93239.19;1065772;55;20180;-83
2020/12/20 04:03:41;;;;;;;;;;;;;;;2.64;96.57;93241.44;1065445;55;20282;-83
2020/12/20 04:04:42;;;;;;;;;;;;;;;2.63;96.84;93242.53;1067844;55;20655;-83
2020/12/20 04:05:42;;;;;;;;;;;;;;;2.60;97.20;93251.22;1065522;55;20165;-84
2020/12/20 04:06:43;;;;;;;;;;;;;;;2.56;97.38;93247.00;1067836;55;20377;-84
2020/12/20 04:07:43;;;;;;;;;;;;;;;2.50;97.88;93242.06;1067778;55;20161;-82
2020/12/20 04:08:45;;;;;;;;;;;;;;;2.52;97.87;93245.09;1063514;55;20158;-84
2020/12/20 04:09:45;;;;;;;;;;;;;;;2.55;97.59;93242.84;1063443;55;20176;-81
2020/12/20 04:10:46;;;;;;;;;;;;;;;2.52;97.65;93241.69;1063425;55;20161;-84
2020/12/20 04:11:46;;;;;;;;;;;;;;;2.48;97.70;93249.56;1065303;55;20182;-83
2020/12/20 04:12:47;;;;;;;;;;;;;;;2.53;97.93;93251.12;1067806;55;20620;-84
2020/12/20 04:13:47;;;;;;;;;;;;;;;2.57;97.72;93237.97;1065523;55;20169;-83
2020/12/20 04:14:48;;;;;;;;;;;;;;;2.64;97.44;93235.41;1063425;55;20161;-83
2020/12/20 04:15:48;;;;;;;;;;;;;;;2.59;97.59;93233.88;1065566;55;20157;-83
2020/12/20 04:16:49;;;;;;;;;;;;;;;2.59;97.61;93239.13;1065538;55;20184;-83
2020/12/20 04:17:49;;;;;;;;;;;;;;;2.68;97.39;93233.56;1067738;55;20645;-86
2020/12/20 04:18:50;;;;;;;;;;;;;;;2.65;97.26;93235.03;1067695;55;20258;-83
2020/12/20 04:19:50;;;;;;;;;;;;;;;2.62;97.60;93242.91;1067782;55;20619;-82
2020/12/20 04:20:51;;;;;;;;;;;;;;;2.61;97.45;93238.78;1070001;55;20165;-82
2020/12/20 04:21:51;;;;;;;;;;;;;;;2.53;97.78;93238.69;1069826;55;21164;-83
2020/12/20 04:22:52;;;;;;;;;;;;;;;2.51;98.54;93235.66;1067669;55;20643;-83
2020/12/20 04:23:52;;;;;;;;;;;;;;;2.56;98.27;93239.84;1065666;55;20173;-83
2020/12/20 04:24:53;;;;;;;;;;;;;;;2.59;98.25;93241.00;1067752;55;20265;-83
2020/12/20 04:25:53;;;;;;;;;;;;;;;2.61;97.93;93239.53;1067754;55;20161;-82
2020/12/20 04:26:55;;;;;;;;;;;;;;;2.59;98.15;93243.62;1065593;55;21220;-83
2020/12/20 04:27:56;;;;;;;;;;;;;;;2.64;98.23;93240.69;1067804;55;20188;-83
2020/12/20 04:28:56;;;;;;;;;;;;;;;2.69;97.93;93237.72;1067739;55;20157;-83
2020/12/20 04:29:58;;;;;;;;;;;;;;;2.66;97.71;93235.81;1067769;55;20177;-83
2020/12/20 04:30:59;;;;;;;;;;;;;;;2.64;97.74;93238.06;1065535;55;20169;-83
2020/12/20 04:32:03;;;;;;;;;;;;;;;2.62;98.24;93233.13;1063545;55;20166;-83
2020/12/20 04:33:07;;;;;;;;;;;;;;;2.67;98.06;93234.66;1065976;55;20161;-82
2020/12/20 04:34:10;;;;;;;;;;;;;;;2.69;97.67;93230.56;1067718;55;20188;-83
2020/12/20 04:35:12;;;;;;;;;;;;;;;2.66;97.79;93230.53;1067657;55;20158;-84
2020/12/20 04:36:15;;;;;;;;;;;;;;;2.62;97.96;93237.62;1067755;55;20208;-83
2020/12/20 04:37:17;;;;;;;;;;;;;;;2.58;98.65;93234.22;1065402;55;20162;-83
2020/12/20 04:38:18;;;;;;;;;;;;;;;2.58;98.73;93229.69;1063254;55;20572;-82
2020/12/20 04:39:19;;;;;;;;;;;;;;;2.53;98.78;93235.28;1067730;55;20165;-82
2020/12/20 04:40:23;;;;;;;;;;;;;;;2.49;98.55;93232.63;1067749;55;20173;-86
2020/12/20 04:41:25;;;;;;;;;;;;;;;2.46;99.23;93236.00;1065724;55;20246;-83
2020/12/20 04:42:26;;;;;;;;;;;;;;;2.47;99.31;93234.88;1067815;55;20229;-84
2020/12/20 04:43:27;;;;;;;;;;;;;;;2.44;99.68;93235.56;1065558;55;20188;-83
2020/12/20 04:44:27;;;;;;;;;;;;;;;2.48;99.65;93240.91;1065630;55;20146;-83
2020/12/20 04:45:29;;;;;;;;;;;;;;;2.45;99.72;93242.38;1067617;55;20180;-83
2020/12/20 04:46:30;;;;;;;;;;;;;;;2.44;99.96;93235.56;1067545;55;20161;-82
2020/12/20 04:47:30;;;;;;;;;;;;;;;2.43;99.60;93234.06;1067810;55;20165;-83
2020/12/20 04:48:37;;;;;;;;;;;;;;;2.44;99.75;93232.94;1067713;55;20157;-82
2020/12/20 04:49:39;;;;;;;;;;;;;;;2.48;99.15;93233.75;1065692;55;20188;-81
2020/12/20 04:50:42;;;;;;;;;;;;;;;2.48;99.39;93236.38;1065699;55;20165;-83
2020/12/20 04:51:43;;;;;;;;;;;;;;;2.48;99.18;93233.75;1067789;55;20937;-81
2020/12/20 04:52:46;;;;;;;;;;;;;;;2.44;99.27;93232.94;1067754;55;20192;-82
2020/12/20 04:53:47;;;;;;;;;;;;;;;2.44;100.00;93229.53;1063494;55;20188;-83
2020/12/20 04:54:48;;;;;;;;;;;;;;;2.43;99.74;93233.31;1065606;55;20269;-84
2020/12/20 04:55:49;;;;;;;;;;;;;;;2.42;99.48;93237.06;1065542;55;20247;-81
2020/12/20 04:56:50;;;;;;;;;;;;;;;2.39;99.85;93241.19;1061471;55;20194;-82
2020/12/20 04:57:51;;;;;;;;;;;;;;;2.35;99.73;93237.75;1063491;55;20181;-82
2020/12/20 04:58:51;;;;;;;;;;;;;;;2.39;100.00;93233.25;1067753;55;20153;-83
2020/12/20 04:59:52;;;;;;;;;;;;;;;2.40;100.00;93239.31;1065589;55;20165;-81
2020/12/20 05:00:54;;;;;;;;;;;;;;;2.40;99.83;93234.78;1063591;55;20169;-84
2020/12/20 05:01:55;;;;;;;;;;;;;;;2.39;99.73;93235.91;1067905;55;20161;-84
2020/12/20 05:02:55;;;;;;;;;;;;;;;2.41;99.56;93236.28;1067696;55;20238;-83
2020/12/20 05:03:56;;;;;;;;;;;;;;;2.41;99.60;93233.66;1063411;55;20181;-82
2020/12/20 05:04:56;;;;;;;;;;;;;;;2.38;99.47;93237.03;1065633;55;20176;-83
2020/12/20 05:05:58;;;;;;;;;;;;;;;2.38;99.51;93242.31;1069919;55;20193;-82
2020/12/20 05:06:59;;;;;;;;;;;;;;;2.37;99.51;93234.72;1065518;55;20650;-82
2020/12/20 05:07:59;;;;;;;;;;;;;;;2.36;98.96;93231.34;1065546;55;20169;-83
2020/12/20 05:09:04;;;;;;;;;;;;;;;2.35;99.53;93237.00;1070019;55;20193;-84
2020/12/20 05:10:05;;;;;;;;;;;;;;;2.36;99.67;93239.25;1065402;55;20735;-83
2020/12/20 05:11:05;;;;;;;;;;;;;;;2.33;99.97;93244.47;1065529;55;20220;-82
2020/12/20 05:12:22;;;;;;;;;;;;;;;2.34;99.84;93241.50;1069398;55;20187;-83
2020/12/20 05:13:36;;;;;;;;;;;;;;;2.44;99.64;93248.00;1065552;55;20176;-84
2020/12/20 05:14:37;;;;;;;;;;;;;;;2.41;98.81;93233.66;1064402;55;20651;-82
2020/12/20 05:15:37;;;;;;;;;;;;;;;2.49;98.87;93237.88;1065467;55;20158;-85
2020/12/20 05:16:39;;;;;;;;;;;;;;;2.51;98.24;93240.19;1065492;55;20255;-82
2020/12/20 05:17:39;;;;;;;;;;;;;;;2.58;98.08;93244.75;1067676;55;20188;-86
2020/12/20 05:18:47;;;;;;;;;;;;;;;2.50;97.88;93242.06;1067701;55;20220;-84
2020/12/20 05:19:48;;;;;;;;;;;;;;;2.44;98.29;93235.56;1063656;55;20165;-83
2020/12/20 05:20:48;;;;;;;;;;;;;;;2.39;98.39;93245.69;1065688;55;20154;-83
2020/12/20 05:21:50;;;;;;;;;;;;;;;2.35;98.85;93242.25;1065448;55;20157;-82
2020/12/20 05:22:53;;;;;;;;;;;;;;;2.36;98.85;93247.16;1063455;55;20716;-83